MDSD - Las Americas
MDSD 230500Z 00000KT 9999 FEW015CB SCT016 BKN300 24/24 Q1014 CB/S/SW
Observed:
visibility:
Flight Rules:
Cloud Levels:
Temperature:
Humidity:
Pressure: